createdAt,value
2023-02-27T00:00:19.620Z,99662.97
2023-02-27T00:02:49.407Z,99648.31
2023-02-27T00:05:16.887Z,99661.25
2023-02-27T00:07:43.847Z,99664.69
2023-02-27T00:10:12.627Z,99664.72
2023-02-27T00:12:39.677Z,99666.47
2023-02-27T00:15:20.585Z,99668.22
2023-02-27T00:17:47.272Z,99684.63
2023-02-27T00:20:16.119Z,99684.63
2023-02-27T00:22:43.476Z,99684.63
2023-02-27T00:25:10.772Z,99626.88
2023-02-27T00:27:37.711Z,99688.09
2023-02-27T00:30:11.240Z,99687.22
2023-02-27T00:32:37.999Z,99707.09
2023-02-27T00:35:10.262Z,99695.88
2023-02-27T00:37:38.376Z,99700.19
2023-02-27T00:40:06.814Z,99695.91
2023-02-27T00:42:35.730Z,99699.34
2023-02-27T00:45:04.557Z,99696.75
2023-02-27T00:47:32.431Z,99690.69
2023-02-27T00:49:59.077Z,99709.69
2023-02-27T00:52:26.273Z,99707.97
2023-02-27T00:54:52.889Z,99691.56
2023-02-27T00:57:19.945Z,99708.81
2023-02-27T00:59:47.482Z,99705.41
2023-02-27T01:02:14.512Z,99704.53
2023-02-27T01:04:41.429Z,99710.56
2023-02-27T01:07:08.684Z,99708.81
2023-02-27T01:09:35.738Z,99711.41
2023-02-27T01:12:02.389Z,99702.75
2023-02-27T01:14:29.586Z,99714.03
2023-02-27T01:16:57.967Z,99706.22
2023-02-27T01:19:25.202Z,99720.03
2023-02-27T01:21:52.630Z,99726.97
2023-02-27T01:24:19.913Z,99713.13
2023-02-27T01:26:47.638Z,99713.16
2023-02-27T01:29:16.423Z,99730.41
2023-02-27T01:31:43.231Z,99741.63
2023-02-27T01:34:10.129Z,99725.22
2023-02-27T01:36:36.808Z,99743.38
2023-02-27T01:39:04.941Z,99731.31
2023-02-27T01:41:32.462Z,99731.28
2023-02-27T01:44:08.518Z,99738.19
2023-02-27T01:46:35.677Z,99739.91
2023-02-27T01:49:17.900Z,99752.84
2023-02-27T01:52:01.895Z,99746.81
2023-02-27T01:54:32.659Z,99730.44
2023-02-27T01:56:59.304Z,99739.06
2023-02-27T01:59:25.933Z,99752.84
2023-02-27T02:01:53.179Z,99751.13
2023-02-27T02:04:28.740Z,99766.66
2023-02-27T02:07:03.544Z,99764.06
2023-02-27T02:09:32.549Z,99761.50
2023-02-27T02:11:59.695Z,99777.03
2023-02-27T02:14:27.158Z,99764.94
2023-02-27T02:17:05.215Z,99777.03
2023-02-27T02:19:34.732Z,99778.78
2023-02-27T02:22:33.759Z,99771.84
2023-02-27T02:25:03.751Z,99780.47
2023-02-27T02:28:00.255Z,99774.44
2023-02-27T02:30:58.704Z,99777.03
2023-02-27T02:33:37.555Z,99784.78
2023-02-27T02:36:24.737Z,99782.22
2023-02-27T02:38:57.142Z,99789.13
2023-02-27T02:41:58.269Z,99783.06
2023-02-27T02:44:40.059Z,99806.38
2023-02-27T02:47:41.729Z,99817.56
2023-02-27T02:50:20.506Z,99806.38
2023-02-27T02:53:13.741Z,99819.28
2023-02-27T02:55:52.424Z,99821.91
2023-02-27T02:58:31.516Z,99829.66
2023-02-27T03:01:16.012Z,99823.59
2023-02-27T03:03:55.208Z,99818.44
2023-02-27T03:06:32.381Z,99833.97
2023-02-27T03:09:08.153Z,99830.47
2023-02-27T03:11:39.325Z,99827.03
2023-02-27T03:14:36.490Z,99834.81
2023-02-27T03:17:10.509Z,99839.13
2023-02-27T03:19:48.723Z,99852.91
2023-02-27T03:22:19.533Z,99829.63
2023-02-27T03:24:53.664Z,99841.72
2023-02-27T03:27:22.496Z,99853.81
2023-02-27T03:29:54.890Z,99857.25
2023-02-27T03:32:50.246Z,99858.97
2023-02-27T03:35:19.356Z,99865.88
2023-02-27T03:37:51.754Z,99876.22
2023-02-27T03:40:33.012Z,99867.56
2023-02-27T03:43:21.075Z,99882.25
2023-02-27T16:56:37.266Z,100689.00
2023-02-27T16:59:05.625Z,100697.75
2023-02-27T17:01:34.358Z,100699.56
2023-02-27T17:04:01.226Z,100696.91
2023-02-27T17:06:28.345Z,100697.81
2023-02-27T17:08:56.157Z,100670.84
2023-02-27T17:11:22.890Z,100700.44
2023-02-27T17:13:49.500Z,100698.75
2023-02-27T17:16:16.294Z,100706.47
2023-02-27T17:18:43.056Z,100703.75
2023-02-27T17:21:10.917Z,100704.63
2023-02-27T17:23:38.335Z,100699.41
2023-02-27T17:26:05.693Z,100700.16
2023-02-27T17:28:35.298Z,100693.94
2023-02-27T17:31:04.073Z,100702.38
2023-02-27T17:33:34.768Z,100713.44
2023-02-27T17:36:03.630Z,100725.44
2023-02-27T17:38:31.938Z,100713.28
2023-02-27T17:41:01.518Z,100720.09
2023-02-27T17:43:28.152Z,100713.06
2023-02-27T17:45:54.863Z,100716.34
2023-02-27T17:48:21.501Z,100717.97
2023-02-27T17:50:48.081Z,100717.84
2023-02-27T17:53:15.746Z,100722.88
2023-02-27T17:55:42.636Z,100720.31
2023-02-27T17:58:09.536Z,100732.44
2023-02-27T18:00:36.196Z,100715.22
2023-02-27T18:03:02.864Z,100724.81
2023-02-27T18:05:29.435Z,100713.53
2023-02-27T18:07:57.063Z,100709.69
2023-02-27T18:10:23.815Z,100705.63
2023-02-27T18:12:52.958Z,100724.69
2023-02-27T18:15:20.850Z,100728.03
2023-02-27T18:17:47.457Z,100730.41
2023-02-27T18:20:14.156Z,100732.00
2023-02-27T18:22:41.640Z,100731.19
2023-02-27T18:25:08.454Z,100731.94
2023-02-27T18:27:41.398Z,100730.88
2023-02-27T18:30:09.983Z,100725.72
2023-02-27T18:32:37.000Z,100723.16
2023-02-27T18:35:07.098Z,100718.97
2023-02-27T18:37:33.833Z,100721.66
2023-02-27T18:40:06.098Z,100718.84
2023-02-27T18:42:33.683Z,100725.66
2023-02-27T18:45:01.914Z,100722.06
2023-02-27T18:47:30.243Z,100722.88
2023-02-27T18:49:57.042Z,100718.66
2023-02-27T18:52:23.798Z,100729.31
2023-02-27T18:54:52.192Z,100727.56
2023-02-27T18:57:19.666Z,100736.44
2023-02-27T18:59:47.587Z,100734.84
2023-02-27T19:02:16.450Z,100737.56
2023-02-27T19:04:43.504Z,100731.41
2023-02-27T19:07:10.273Z,100741.84
2023-02-27T19:09:37.044Z,100735.81
2023-02-27T19:12:04.014Z,100747.84
2023-02-27T19:14:31.182Z,100746.13
2023-02-27T19:17:00.491Z,100750.53
2023-02-27T19:19:30.061Z,100754.06
2023-02-27T19:21:57.608Z,100742.81
2023-02-27T19:24:24.516Z,100750.66
2023-02-27T19:26:53.356Z,100743.63
2023-02-27T19:29:20.598Z,100749.59
2023-02-27T19:31:47.447Z,100753.03
2023-02-27T19:34:15.075Z,100751.38
2023-02-27T19:36:43.626Z,100755.63
2023-02-27T19:39:10.934Z,100749.59
2023-02-27T19:41:37.869Z,100754.75
2023-02-27T19:44:05.237Z,100747.88
2023-02-27T19:46:34.113Z,100741.19
2023-02-27T19:49:04.494Z,100736.91
2023-02-27T19:51:31.832Z,100743.03
2023-02-27T19:53:58.573Z,100748.06
2023-02-27T19:56:29.393Z,100735.94
2023-02-27T19:58:56.403Z,100734.06
2023-02-27T20:01:27.888Z,100744.66
2023-02-27T20:03:56.063Z,100753.16
2023-02-27T20:06:25.411Z,100745.28
2023-02-27T20:08:52.672Z,100748.81
2023-02-27T20:11:20.927Z,100749.47
2023-02-27T20:13:49.219Z,100747.63
2023-02-27T20:16:18.155Z,100744.97
2023-02-27T20:18:47.964Z,100753.53
2023-02-27T20:21:17.778Z,100751.78
2023-02-27T20:23:46.356Z,100748.06
2023-02-27T20:26:23.048Z,100753.34
2023-02-27T20:28:52.201Z,100768.91
2023-02-27T20:31:22.115Z,100772.16
2023-02-27T20:33:51.089Z,100767.84
2023-02-27T20:36:17.917Z,100766.06
2023-02-27T20:38:44.970Z,100791.19
2023-02-27T20:41:14.809Z,100776.34
2023-02-27T20:43:44.693Z,100791.53
2023-02-27T20:46:20.275Z,100799.84
2023-02-27T20:48:47.268Z,100791.22
2023-02-27T20:51:20.101Z,100791.00
2023-02-27T20:53:49.399Z,100796.16
2023-02-27T20:56:22.302Z,100794.28
2023-02-27T20:58:49.127Z,100785.66
2023-02-27T21:01:17.021Z,100785.78
2023-02-27T21:03:45.425Z,100789.00
2023-02-27T21:06:17.747Z,100782.16
2023-02-27T21:08:48.372Z,100785.56
2023-02-27T21:11:33.779Z,100780.53
2023-02-27T21:14:07.043Z,100790.84
2023-02-27T21:16:33.799Z,100801.91
2023-02-27T21:19:00.522Z,100800.97
2023-02-27T21:21:32.413Z,100790.66
2023-02-27T21:24:00.105Z,100792.34
2023-02-27T21:26:29.735Z,100802.72
2023-02-27T21:29:04.353Z,100790.63
2023-02-27T21:31:37.486Z,100796.44
2023-02-27T21:34:07.044Z,100794.53
2023-02-27T21:36:36.007Z,100801.25
2023-02-27T21:39:06.702Z,100815.66
2023-02-27T21:41:34.855Z,100810.06
2023-02-27T21:44:03.950Z,100814.34
2023-02-27T21:46:30.814Z,100800.31
2023-02-27T21:48:59.927Z,100806.38
2023-02-27T21:51:39.409Z,100809.59
2023-02-27T21:54:08.291Z,100800.97
2023-02-27T21:56:36.924Z,100804.13
2023-02-27T21:59:04.266Z,100825.47
2023-02-27T22:01:32.074Z,100816.84
2023-02-27T22:03:59.134Z,100825.19
2023-02-27T22:06:28.340Z,100817.19
2023-02-27T22:08:57.029Z,100816.19
2023-02-27T22:11:25.984Z,100804.91
2023-02-27T22:13:52.881Z,100853.06
2023-02-27T22:16:22.428Z,100836.50
2023-02-27T22:18:49.691Z,100846.69
2023-02-27T22:21:19.806Z,100828.47
2023-02-27T22:23:47.430Z,100824.03
2023-02-27T22:26:17.231Z,100830.84
2023-02-27T22:28:43.838Z,100832.53
2023-02-27T22:31:17.527Z,100832.41
2023-02-27T22:33:46.249Z,100826.47
2023-02-27T22:36:16.402Z,100839.22
2023-02-27T22:38:43.206Z,100840.13
2023-02-27T22:41:18.348Z,100846.22
2023-02-27T22:43:46.444Z,100839.41
2023-02-27T22:46:16.480Z,100834.19
2023-02-27T22:48:44.228Z,100818.75
2023-02-27T22:51:14.608Z,100827.22
2023-02-27T22:53:46.120Z,100834.28
2023-02-27T22:56:15.717Z,100834.94
2023-02-27T22:58:44.044Z,100822.03
2023-02-27T23:01:14.773Z,100840.19
2023-02-27T23:03:42.539Z,100830.78
2023-02-27T23:06:12.790Z,100823.84
2023-02-27T23:08:40.229Z,100828.22
2023-02-27T23:11:07.002Z,100824.59
2023-02-27T23:13:33.712Z,100819.41
2023-02-27T23:16:01.343Z,100820.22
2023-02-27T23:18:28.206Z,100815.78
2023-02-27T23:20:54.856Z,100801.88
2023-02-27T23:23:22.917Z,100827.44
2023-02-27T23:25:49.582Z,100814.50
2023-02-27T23:28:16.400Z,100816.97
2023-02-27T23:30:42.943Z,100823.75
2023-02-27T23:33:09.556Z,100810.09
2023-02-27T23:35:36.156Z,100822.88
2023-02-27T23:38:03.707Z,100825.91
2023-02-27T23:40:30.407Z,100819.41
2023-02-27T23:42:56.936Z,100827.84
2023-02-27T23:45:23.495Z,100840.69
2023-02-27T23:47:58.825Z,100830.28
2023-02-27T23:50:37.324Z,100827.28
2023-02-27T23:53:05.120Z,100826.56
2023-02-27T23:55:35.271Z,100822.66
2023-02-27T23:58:04.080Z,100825.63
